Time;durP1;ratioP1;P1;durP2;ratioP2;P2;SDS_P1;SDS_P2;PMS_P1;PMS_P2;Temp;Humidity;BMP_temperature;BMP_pressure;BME280_temperature;BME280_humidity;BME280_pressure;Samples;Min_cycle;Max_cycle;Signal;HPM_P1;HPM_P2
2021/07/12 00:00:17;;;;;;;16.47;11.03;;;19.60;99.90;;;;;;4441990;32;20182;-60
2021/07/12 00:02:45;;;;;;;15.67;11.33;;;19.60;99.90;;;;;;4441938;32;20177;-60
2021/07/12 00:05:13;;;;;;;15.07;11.23;;;19.60;99.90;;;;;;4440427;32;20134;-60
2021/07/12 00:07:40;;;;;;;15.90;11.03;;;19.50;99.90;;;;;;4441643;32;20186;-60
2021/07/12 00:10:10;;;;;;;14.40;11.10;;;19.50;99.90;;;;;;4440435;32;20162;-60
2021/07/12 00:12:37;;;;;;;14.53;10.63;;;19.50;99.90;;;;;;4441936;32;20406;-60
2021/07/12 00:15:06;;;;;;;13.73;10.73;;;19.50;99.90;;;;;;4441797;32;20494;-60
2021/07/12 00:17:33;;;;;;;14.43;11.10;;;19.50;99.90;;;;;;4441825;32;20169;-59
2021/07/12 00:20:00;;;;;;;16.37;10.90;;;19.50;99.90;;;;;;4441294;32;20442;-59
2021/07/12 00:22:27;;;;;;;15.27;10.47;;;19.50;99.90;;;;;;4441693;32;20175;-59
2021/07/12 00:24:54;;;;;;;14.67;10.73;;;19.50;99.90;;;;;;4441554;32;20205;-59
2021/07/12 00:27:21;;;;;;;16.37;10.87;;;19.50;99.90;;;;;;4440287;32;20227;-59
2021/07/12 00:29:48;;;;;;;16.20;10.77;;;19.40;99.90;;;;;;4440928;32;20139;-59
2021/07/12 00:32:15;;;;;;;14.73;10.73;;;19.50;99.90;;;;;;4441535;32;20385;-60
2021/07/12 00:34:41;;;;;;;16.03;10.60;;;19.50;99.90;;;;;;4441535;32;20430;-59
2021/07/12 00:37:08;;;;;;;15.63;10.97;;;19.50;99.90;;;;;;4441547;32;20138;-59
2021/07/12 00:39:35;;;;;;;14.70;10.10;;;19.50;99.90;;;;;;4441979;32;20138;-59
2021/07/12 00:42:02;;;;;;;14.70;10.13;;;19.40;99.90;;;;;;4441404;32;20181;-59
2021/07/12 00:44:30;;;;;;;14.43;10.10;;;19.40;99.90;;;;;;4441350;32;20183;-59
2021/07/12 00:46:57;;;;;;;14.97;10.53;;;19.30;99.90;;;;;;4440710;32;20184;-59
2021/07/12 00:49:24;;;;;;;13.53;10.13;;;19.30;99.90;;;;;;4441268;32;20197;-59
2021/07/12 00:51:51;;;;;;;15.57;10.27;;;19.30;99.90;;;;;;4441344;32;20138;-59
2021/07/12 00:54:18;;;;;;;13.90;9.40;;;19.30;99.90;;;;;;4441232;32;20242;-59
2021/07/12 00:56:45;;;;;;;18.87;10.53;;;19.30;99.90;;;;;;4441248;32;20159;-59
2021/07/12 00:59:12;;;;;;;14.63;10.17;;;19.30;99.90;;;;;;4441053;32;20315;-59
2021/07/12 01:01:39;;;;;;;15.40;9.73;;;19.30;99.90;;;;;;4440919;32;20139;-59
2021/07/12 01:04:06;;;;;;;13.70;9.30;;;19.20;99.90;;;;;;4440363;32;20161;-59
2021/07/12 01:06:33;;;;;;;15.87;9.67;;;19.30;99.90;;;;;;4440684;32;20230;-59
2021/07/12 01:09:00;;;;;;;12.80;9.13;;;19.30;99.90;;;;;;4440880;32;20522;-59
2021/07/12 01:12:07;;;;;;;15.93;10.20;;;19.20;99.90;;;;;;4440820;32;20157;-59
2021/07/12 01:14:55;;;;;;;15.37;9.80;;;19.20;99.90;;;;;;4440944;32;20190;-59
2021/07/12 01:17:29;;;;;;;14.50;9.63;;;19.20;99.90;;;;;;4440822;32;20154;-60
2021/07/12 01:20:19;;;;;;;16.00;9.90;;;19.10;99.90;;;;;;4440817;32;20142;-59
2021/07/12 01:22:57;;;;;;;13.23;9.50;;;19.10;99.90;;;;;;4440810;32;20237;-59
2021/07/12 01:26:06;;;;;;;13.87;9.80;;;19.10;99.90;;;;;;4440740;32;20381;-59
2021/07/12 01:28:52;;;;;;;14.57;9.50;;;19.10;99.90;;;;;;4376631;32;20261;-59
2021/07/12 01:31:53;;;;;;;14.93;9.97;;;19.10;99.90;;;;;;4378174;32;20140;-59
2021/07/12 01:34:31;;;;;;;15.37;9.83;;;19.00;99.90;;;;;;4304595;33;20150;-59
2021/07/12 01:37:16;;;;;;;13.10;9.60;;;19.10;99.90;;;;;;4304339;33;20196;-59
2021/07/12 01:40:04;;;;;;;15.67;10.33;;;19.10;99.90;;;;;;4304257;33;20523;-59
2021/07/12 01:42:53;;;;;;;15.87;10.30;;;19.00;99.90;;;;;;4303950;33;20207;-59
2021/07/12 01:45:22;;;;;;;16.53;10.00;;;19.00;99.90;;;;;;4303929;33;20154;-60
2021/07/12 01:48:07;;;;;;;13.77;9.77;;;19.00;99.90;;;;;;4302786;33;20141;-59
2021/07/12 01:50:47;;;;;;;14.07;10.27;;;19.00;99.90;;;;;;4303820;33;20161;-59
2021/07/12 01:53:54;;;;;;;13.20;10.37;;;19.00;99.90;;;;;;4304158;33;20145;-59
2021/07/12 01:56:33;;;;;;;13.53;9.97;;;18.90;99.90;;;;;;4261103;33;20397;-60
2021/07/12 01:59:19;;;;;;;15.47;10.43;;;18.90;99.90;;;;;;4261104;33;20513;-60
2021/07/12 02:01:48;;;;;;;15.00;10.47;;;18.90;99.90;;;;;;4261279;33;20206;-60
2021/07/12 02:04:30;;;;;;;15.70;10.27;;;18.90;99.90;;;;;;4484156;31;20191;-60
2021/07/12 02:06:58;;;;;;;13.00;9.93;;;18.80;99.90;;;;;;4469211;32;20138;-59
2021/07/12 02:09:27;;;;;;;14.03;9.83;;;18.80;99.90;;;;;;4469651;32;20234;-59
2021/07/12 02:11:57;;;;;;;13.73;10.07;;;18.80;99.90;;;;;;4469183;32;20177;-60
2021/07/12 02:14:26;;;;;;;16.33;10.37;;;18.80;99.90;;;;;;4469158;32;20138;-60
2021/07/12 02:16:54;;;;;;;14.93;10.60;;;18.80;99.90;;;;;;4468999;32;20233;-59
2021/07/12 02:19:23;;;;;;;13.53;10.27;;;18.80;99.90;;;;;;4469045;32;20165;-59
2021/07/12 02:21:52;;;;;;;16.13;10.30;;;18.80;99.90;;;;;;4469036;32;20142;-59
2021/07/12 02:24:21;;;;;;;13.07;10.00;;;18.80;99.90;;;;;;4468888;32;20150;-59
2021/07/12 02:26:50;;;;;;;16.33;10.00;;;18.80;99.90;;;;;;4468618;32;20176;-59
2021/07/12 02:29:18;;;;;;;14.33;9.50;;;18.80;99.90;;;;;;4467316;32;20142;-59
2021/07/12 02:31:48;;;;;;;13.80;10.13;;;18.80;99.90;;;;;;4468782;32;20448;-60
2021/07/12 02:34:16;;;;;;;14.20;10.17;;;18.80;99.90;;;;;;4468887;32;20165;-60
2021/07/12 02:36:44;;;;;;;12.83;9.70;;;18.80;99.90;;;;;;4468771;32;20186;-60
2021/07/12 02:39:12;;;;;;;14.20;10.50;;;18.80;99.90;;;;;;4468755;32;20236;-59
2021/07/12 02:41:40;;;;;;;13.90;9.80;;;18.70;99.90;;;;;;4468780;32;20179;-59
2021/07/12 02:44:10;;;;;;;14.03;10.23;;;18.70;99.90;;;;;;4468574;32;20480;-59
2021/07/12 02:46:39;;;;;;;14.73;9.73;;;18.70;99.90;;;;;;4468583;32;20183;-60
2021/07/12 02:49:07;;;;;;;14.97;9.87;;;18.70;99.90;;;;;;4468625;32;20206;-60
2021/07/12 02:51:52;;;;;;;12.47;9.40;;;18.70;99.90;;;;;;4468592;32;20146;-59
2021/07/12 02:54:24;;;;;;;11.97;9.27;;;18.60;99.90;;;;;;4468818;32;20146;-60
2021/07/12 02:56:51;;;;;;;16.17;9.13;;;18.70;99.90;;;;;;4468474;32;20174;-60
2021/07/12 02:59:18;;;;;;;16.33;9.10;;;18.70;99.90;;;;;;4468485;32;20428;-60
2021/07/12 03:01:45;;;;;;;12.50;8.60;;;18.70;99.90;;;;;;4468348;32;20165;-60
2021/07/12 03:04:12;;;;;;;10.90;8.67;;;18.70;99.90;;;;;;4468137;32;20375;-60
2021/07/12 03:06:44;;;;;;;11.53;8.73;;;18.70;99.90;;;;;;4466696;32;20142;-60
2021/07/12 03:09:13;;;;;;;13.50;9.73;;;18.70;99.90;;;;;;4468545;32;20209;-60
2021/07/12 03:11:57;;;;;;;14.83;9.40;;;18.70;99.90;;;;;;4468283;32;20210;-60
2021/07/12 03:15:00;;;;;;;13.53;8.67;;;18.80;99.90;;;;;;4463548;32;20466;-60
2021/07/12 03:17:29;;;;;;;12.87;8.83;;;18.80;99.90;;;;;;4455663;32;20222;-60
2021/07/12 03:19:58;;;;;;;14.03;9.83;;;18.80;99.90;;;;;;4457844;32;20199;-60
2021/07/12 03:22:26;;;;;;;11.23;9.07;;;18.80;99.90;;;;;;4457693;32;20188;-60
2021/07/12 03:24:56;;;;;;;23.00;8.97;;;18.80;99.90;;;;;;4457699;32;20154;-60
2021/07/12 03:27:23;;;;;;;11.83;8.93;;;18.80;99.90;;;;;;4457693;32;20142;-60
2021/07/12 03:29:53;;;;;;;14.40;8.80;;;18.80;99.90;;;;;;4457655;32;20147;-60
2021/07/12 03:32:23;;;;;;;11.93;8.60;;;18.80;99.90;;;;;;4457611;32;20146;-60
2021/07/12 03:34:52;;;;;;;13.80;8.87;;;18.80;99.90;;;;;;4457659;32;20135;-60
2021/07/12 03:37:20;;;;;;;11.07;8.57;;;18.80;99.90;;;;;;4457547;32;20138;-60
2021/07/12 03:39:49;;;;;;;12.87;8.87;;;18.80;99.90;;;;;;4456016;32;20382;-60
2021/07/12 03:42:21;;;;;;;14.30;8.83;;;18.80;99.90;;;;;;4456184;32;20190;-61
2021/07/12 03:44:51;;;;;;;13.63;9.33;;;18.80;99.90;;;;;;4457506;32;20195;-60
2021/07/12 03:47:33;;;;;;;10.70;8.77;;;18.90;99.90;;;;;;4457363;32;20524;-60
2021/07/12 03:50:10;;;;;;;11.20;8.97;;;19.00;99.90;;;;;;4456256;32;20134;-60
2021/07/12 03:52:46;;;;;;;12.60;9.40;;;19.00;99.90;;;;;;4457318;32;20386;-60
2021/07/12 03:55:15;;;;;;;12.77;9.33;;;19.10;99.90;;;;;;4457251;32;20154;-59
2021/07/12 03:57:43;;;;;;;14.83;9.27;;;19.10;99.90;;;;;;4457625;32;20196;-60
2021/07/12 04:00:17;;;;;;;12.40;8.73;;;19.20;99.90;;;;;;4457200;32;20504;-60
2021/07/12 04:02:44;;;;;;;11.77;9.27;;;19.20;99.90;;;;;;4457155;32;20170;-59
2021/07/12 04:05:12;;;;;;;13.73;9.30;;;19.20;99.90;;;;;;4457499;32;20397;-60
2021/07/12 04:07:40;;;;;;;12.80;9.70;;;19.20;99.90;;;;;;4457386;32;20142;-59
2021/07/12 04:10:10;;;;;;;15.07;10.13;;;19.30;99.90;;;;;;4456965;32;20165;-59
2021/07/12 04:12:41;;;;;;;13.77;9.47;;;19.40;99.90;;;;;;4456970;32;20138;-60
2021/07/12 04:15:09;;;;;;;12.03;8.83;;;19.40;99.90;;;;;;4457523;32;20371;-60
2021/07/12 04:17:36;;;;;;;11.67;9.30;;;19.50;99.90;;;;;;4456901;32;20142;-59
2021/07/12 04:20:05;;;;;;;15.07;9.40;;;19.40;99.90;;;;;;4457261;32;20194;-59
2021/07/12 04:22:32;;;;;;;12.47;10.07;;;19.40;99.90;;;;;;4456987;32;20263;-59
2021/07/12 04:24:59;;;;;;;12.70;9.83;;;19.50;99.90;;;;;;4456877;32;20187;-59
2021/07/12 04:27:26;;;;;;;13.50;9.87;;;19.50;99.90;;;;;;4456120;32;20183;-60
2021/07/12 04:29:53;;;;;;;14.87;9.97;;;19.50;99.90;;;;;;4456710;32;20142;-61
2021/07/12 04:32:20;;;;;;;15.03;10.23;;;19.60;99.90;;;;;;4456684;32;20195;-61
2021/07/12 04:34:47;;;;;;;14.73;10.20;;;19.60;99.90;;;;;;4455851;32;20134;-59
2021/07/12 04:37:14;;;;;;;14.70;10.60;;;19.70;99.90;;;;;;4456654;32;20412;-60
2021/07/12 04:39:41;;;;;;;14.93;10.60;;;19.80;99.90;;;;;;4456437;32;20169;-60
2021/07/12 04:42:08;;;;;;;14.40;10.37;;;19.80;99.90;;;;;;4455120;32;20130;-59
2021/07/12 04:44:35;;;;;;;15.33;11.37;;;19.90;99.90;;;;;;4456541;32;20218;-60
2021/07/12 04:47:02;;;;;;;15.67;11.50;;;20.00;99.90;;;;;;4456519;32;20202;-62
2021/07/12 04:49:29;;;;;;;14.47;12.00;;;20.00;99.90;;;;;;4456460;32;20161;-60
2021/07/12 04:51:56;;;;;;;18.70;11.70;;;20.10;99.90;;;;;;4454720;32;20142;-61
2021/07/12 04:54:23;;;;;;;16.43;11.07;;;20.20;99.90;;;;;;4456327;32;20261;-61
2021/07/12 04:56:50;;;;;;;15.47;11.43;;;20.30;99.90;;;;;;4456347;32;20142;-61
2021/07/12 04:59:23;;;;;;;15.03;10.87;;;20.30;99.90;;;;;;4456231;32;20138;-60
2021/07/12 05:01:50;;;;;;;14.00;11.53;;;20.40;99.90;;;;;;4456807;32;20139;-60
2021/07/12 05:04:17;;;;;;;16.73;11.50;;;20.40;99.90;;;;;;4456016;32;20154;-60
2021/07/12 05:06:44;;;;;;;14.97;11.63;;;20.50;99.90;;;;;;4456344;32;20434;-60
2021/07/12 05:09:11;;;;;;;15.50;11.93;;;20.60;99.90;;;;;;4456319;32;20184;-60
2021/07/12 05:11:38;;;;;;;14.50;11.77;;;20.60;99.90;;;;;;4456107;32;20134;-60
2021/07/12 05:14:05;;;;;;;18.33;12.10;;;20.70;99.90;;;;;;4455664;32;20193;-60
2021/07/12 05:16:35;;;;;;;15.50;12.07;;;20.80;99.90;;;;;;4454384;32;20161;-60
2021/07/12 05:19:03;;;;;;;15.03;11.33;;;20.90;99.90;;;;;;4455687;32;20198;-60
2021/07/12 05:21:30;;;;;;;14.43;11.60;;;20.90;99.90;;;;;;4455862;32;20131;-59
2021/07/12 05:23:56;;;;;;;20.33;12.77;;;21.00;99.90;;;;;;4455962;32;20146;-59
2021/07/12 05:26:23;;;;;;;15.00;11.57;;;21.10;99.90;;;;;;4454399;32;20173;-60
2021/07/12 05:28:51;;;;;;;17.27;12.90;;;21.20;99.90;;;;;;4454122;32;20138;-61
2021/07/12 05:31:18;;;;;;;14.73;11.80;;;21.20;99.90;;;;;;4454310;32;20176;-60
2021/07/12 05:33:45;;;;;;;16.03;12.30;;;21.30;99.90;;;;;;4454847;32;20180;-59
2021/07/12 05:36:12;;;;;;;15.97;12.63;;;21.40;99.90;;;;;;4455699;32;20149;-59
2021/07/12 05:38:39;;;;;;;16.83;12.27;;;21.50;99.90;;;;;;4455470;32;20142;-61
2021/07/12 05:41:06;;;;;;;16.17;12.67;;;21.50;99.90;;;;;;4454164;32;20178;-61
2021/07/12 05:43:33;;;;;;;15.23;11.70;;;21.50;99.90;;;;;;4455666;32;20460;-60
2021/07/12 05:46:00;;;;;;;15.70;12.23;;;21.60;99.90;;;;;;4455653;32;20161;-61
2021/07/12 05:48:27;;;;;;;16.50;12.67;;;21.70;99.90;;;;;;4454781;32;20480;-61
2021/07/12 05:50:54;;;;;;;17.80;12.77;;;21.80;99.90;;;;;;4455591;32;20134;-60
2021/07/12 05:53:21;;;;;;;16.43;12.67;;;21.90;99.90;;;;;;4454904;32;20139;-61
2021/07/12 05:55:48;;;;;;;17.20;12.47;;;21.90;99.90;;;;;;4454367;32;20146;-60
2021/07/12 05:58:15;;;;;;;18.70;12.80;;;22.00;99.90;;;;;;4454881;32;20464;-60
2021/07/12 06:00:42;;;;;;;14.13;11.90;;;22.10;99.90;;;;;;4455592;32;20134;-59
2021/07/12 06:03:09;;;;;;;20.77;13.17;;;22.10;99.90;;;;;;4455091;32;20174;-60
2021/07/12 06:05:35;;;;;;;15.63;12.40;;;22.20;99.90;;;;;;4455917;32;20153;-61
2021/07/12 06:08:03;;;;;;;14.17;12.43;;;22.30;99.90;;;;;;4455596;32;20248;-61
2021/07/12 06:10:30;;;;;;;16.37;12.93;;;22.40;99.90;;;;;;4455972;32;20135;-61
2021/07/12 06:12:57;;;;;;;16.00;12.67;;;22.50;99.90;;;;;;4455381;32;20457;-61
2021/07/12 06:15:24;;;;;;;15.80;12.97;;;22.50;99.90;;;;;;4454902;32;20185;-62
2021/07/12 06:17:51;;;;;;;16.63;12.60;;;22.60;99.90;;;;;;4455428;32;20146;-61
2021/07/12 06:20:18;;;;;;;18.57;12.80;;;22.80;99.90;;;;;;4455497;32;20142;-61
2021/07/12 06:22:47;;;;;;;19.00;13.53;;;22.90;99.90;;;;;;4455748;32;20138;-61
2021/07/12 06:25:16;;;;;;;19.67;12.90;;;23.00;99.90;;;;;;4454244;32;20150;-61
2021/07/12 06:27:43;;;;;;;17.37;13.13;;;23.00;99.90;;;;;;4455499;32;20206;-61
2021/07/12 06:30:11;;;;;;;13.90;12.40;;;23.10;99.90;;;;;;4455472;32;20183;-61
2021/07/12 06:32:38;;;;;;;16.73;13.33;;;23.20;99.90;;;;;;4455364;32;20130;-60
2021/07/12 06:35:06;;;;;;;17.40;14.10;;;23.30;99.90;;;;;;4454626;32;20206;-61
2021/07/12 06:37:33;;;;;;;17.20;14.13;;;23.40;99.90;;;;;;4455313;32;20161;-61
2021/07/12 06:40:00;;;;;;;16.57;12.57;;;23.40;99.90;;;;;;4455357;32;20436;-61
2021/07/12 06:42:27;;;;;;;17.58;14.20;;;23.50;99.90;;;;;;4454846;32;20147;-61
2021/07/12 06:44:57;;;;;;;17.50;14.25;;;23.50;99.90;;;;;;4455085;32;20263;-61
2021/07/12 06:47:28;;;;;;;19.77;14.03;;;23.60;99.90;;;;;;4455259;32;20230;-61
2021/07/12 06:49:55;;;;;;;18.23;13.88;;;23.70;99.90;;;;;;4456473;32;20134;-61
2021/07/12 06:52:21;;;;;;;19.23;14.38;;;23.70;99.90;;;;;;4458132;32;20150;-61
2021/07/12 06:54:48;;;;;;;18.23;13.87;;;23.70;99.90;;;;;;4458118;32;20160;-60
2021/07/12 06:57:16;;;;;;;15.47;13.30;;;23.80;99.90;;;;;;4458039;32;20134;-61
2021/07/12 06:59:43;;;;;;;17.23;13.88;;;23.90;99.90;;;;;;4458118;32;20161;-61
2021/07/12 07:02:10;;;;;;;18.12;13.25;;;24.00;99.90;;;;;;4457706;32;20240;-62
2021/07/12 07:04:41;;;;;;;18.93;14.50;;;24.10;99.90;;;;;;4458370;32;20363;-60
2021/07/12 07:07:08;;;;;;;19.17;14.10;;;24.20;99.90;;;;;;4458044;32;20169;-60
2021/07/12 07:09:35;;;;;;;16.33;13.20;;;24.20;99.90;;;;;;4457920;32;20234;-61
2021/07/12 07:12:02;;;;;;;18.70;13.48;;;24.30;99.90;;;;;;4457878;32;20157;-60
2021/07/12 07:14:29;;;;;;;17.62;13.95;;;24.40;99.90;;;;;;4457595;32;20420;-60
2021/07/12 07:16:56;;;;;;;15.68;13.02;;;24.60;99.90;;;;;;4457605;32;20158;-61
2021/07/12 07:19:23;;;;;;;17.85;14.18;;;24.70;99.90;;;;;;4457526;32;20206;-61
2021/07/12 07:21:53;;;;;;;18.40;13.80;;;24.80;99.90;;;;;;4457609;32;20191;-61
2021/07/12 07:24:21;;;;;;;17.00;13.62;;;24.90;99.90;;;;;;4458134;32;20157;-60
2021/07/12 07:26:49;;;;;;;19.73;14.20;;;25.10;99.90;;;;;;4457509;32;20142;-60
2021/07/12 07:29:16;;;;;;;18.60;13.40;;;25.20;99.90;;;;;;4455583;32;20169;-60
2021/07/12 07:31:44;;;;;;;17.20;13.62;;;25.10;99.90;;;;;;4457649;32;20233;-60
2021/07/12 07:34:30;;;;;;;17.08;14.27;;;25.10;99.90;;;;;;4457118;32;20479;-60
2021/07/12 07:36:57;;;;;;;17.12;13.98;;;25.20;99.90;;;;;;4457410;32;20499;-61
2021/07/12 07:39:24;;;;;;;18.90;14.02;;;25.30;99.90;;;;;;4457371;32;20208;-61
2021/07/12 07:42:11;;;;;;;16.73;13.40;;;25.30;99.90;;;;;;4456914;32;20173;-61
2021/07/12 07:44:38;;;;;;;17.12;14.45;;;25.40;99.90;;;;;;4457301;32;20153;-60
2021/07/12 07:47:05;;;;;;;17.65;15.02;;;25.50;99.90;;;;;;4457130;32;20134;-60
2021/07/12 07:49:33;;;;;;;17.77;14.87;;;25.50;99.90;;;;;;4457054;32;20411;-60
2021/07/12 07:51:59;;;;;;;17.62;14.25;;;25.60;99.90;;;;;;4457323;32;20138;-60
2021/07/12 07:54:26;;;;;;;16.27;13.62;;;25.70;99.90;;;;;;4455740;32;20182;-61
2021/07/12 07:56:54;;;;;;;17.40;14.32;;;25.80;99.90;;;;;;4457061;32;20184;-59
2021/07/12 07:59:21;;;;;;;15.90;13.68;;;26.00;99.90;;;;;;4457025;32;20198;-60
2021/07/12 08:01:48;;;;;;;17.05;14.32;;;26.10;99.90;;;;;;4456938;32;20134;-60
2021/07/12 08:04:14;;;;;;;17.25;14.45;;;26.10;99.90;;;;;;4455312;32;20290;-61
2021/07/12 08:06:41;;;;;;;16.77;14.02;;;26.30;99.90;;;;;;4456953;32;20157;-61
2021/07/12 08:09:08;;;;;;;16.40;13.73;;;26.40;99.90;;;;;;4456941;32;20138;-61
2021/07/12 08:11:35;;;;;;;18.98;14.60;;;26.50;99.90;;;;;;4455581;32;20135;-61
2021/07/12 08:14:03;;;;;;;19.40;14.90;;;26.60;99.90;;;;;;4456908;32;20490;-62
2021/07/12 08:16:30;;;;;;;16.95;14.02;;;26.60;99.90;;;;;;4456894;32;20183;-61
2021/07/12 08:18:57;;;;;;;16.90;14.05;;;26.70;99.90;;;;;;4455150;32;20432;-60
2021/07/12 08:21:24;;;;;;;17.20;14.80;;;26.90;99.90;;;;;;4456800;32;20174;-61
2021/07/12 08:23:51;;;;;;;21.05;15.55;;;26.90;99.90;;;;;;4455966;32;20165;-60
2021/07/12 08:26:18;;;;;;;17.35;14.57;;;27.00;99.90;;;;;;4456727;32;20138;-61
2021/07/12 08:28:45;;;;;;;19.70;14.80;;;27.40;99.90;;;;;;4456589;32;20404;-61
2021/07/12 08:31:12;;;;;;;17.60;13.82;;;28.10;99.90;;;;;;4456650;32;20161;-61
2021/07/12 08:33:40;;;;;;;16.10;13.90;;;28.80;99.90;;;;;;4456568;32;20207;-61
2021/07/12 08:36:07;;;;;;;15.57;13.80;;;29.50;99.90;;;;;;4456854;32;20131;-61
2021/07/12 08:38:34;;;;;;;18.25;13.52;;;29.90;99.90;;;;;;4455910;32;20249;-61
2021/07/12 08:41:03;;;;;;;16.48;13.80;;;30.40;99.90;;;;;;4456514;32;20138;-60
2021/07/12 08:43:34;;;;;;;14.82;13.20;;;30.80;99.90;;;;;;4456595;32;20173;-61
2021/07/12 08:46:18;;;;;;;13.30;11.50;;;31.00;99.90;;;;;;4456623;32;20517;-60
2021/07/12 08:48:45;;;;;;;13.35;11.75;;;31.20;99.90;;;;;;4456394;32;20199;-60
2021/07/12 08:51:13;;;;;;;15.95;12.10;;;31.50;99.90;;;;;;4456405;32;20166;-60
2021/07/12 08:53:40;;;;;;;14.13;12.23;;;31.80;99.90;;;;;;4456317;32;20183;-60
2021/07/12 08:56:07;;;;;;;14.50;11.35;;;32.10;99.90;;;;;;4456216;32;20524;-60
2021/07/12 08:58:34;;;;;;;13.18;11.50;;;32.20;99.90;;;;;;4456246;32;20529;-60
2021/07/12 09:01:04;;;;;;;12.95;11.52;;;32.50;99.90;;;;;;4456200;32;20178;-60
2021/07/12 09:03:36;;;;;;;14.77;11.32;;;32.60;99.90;;;;;;4455303;32;20177;-61
2021/07/12 09:06:15;;;;;;;12.45;11.15;;;32.90;99.90;;;;;;4454372;32;20150;-61
2021/07/12 09:08:47;;;;;;;12.30;10.90;;;33.10;99.90;;;;;;4456300;32;20444;-61
2021/07/12 09:11:39;;;;;;;11.43;9.98;;;33.50;99.90;;;;;;4454959;32;20506;-60
2021/07/12 09:14:09;;;;;;;13.48;10.50;;;33.50;99.90;;;;;;4455994;32;20146;-60
2021/07/12 09:16:52;;;;;;;12.15;10.95;;;33.70;99.90;;;;;;4455949;32;20179;-60
2021/07/12 09:19:28;;;;;;;11.73;10.20;;;33.50;99.90;;;;;;4455974;32;20146;-60
2021/07/12 09:22:11;;;;;;;12.52;10.15;;;33.60;99.20;;;;;;4455661;32;20222;-61
2021/07/12 09:24:50;;;;;;;12.82;10.80;;;33.60;99.90;;;;;;4455846;32;20141;-60
2021/07/12 09:27:20;;;;;;;11.50;9.95;;;33.70;98.70;;;;;;4455639;32;20146;-61
2021/07/12 09:29:49;;;;;;;10.90;8.93;;;33.70;97.00;;;;;;4456054;32;20452;-61
2021/07/12 09:32:20;;;;;;;11.57;10.48;;;33.60;96.20;;;;;;4456342;32;20191;-61
2021/07/12 09:34:48;;;;;;;13.80;10.63;;;33.70;96.30;;;;;;4456181;32;20200;-60
2021/07/12 09:37:17;;;;;;;14.80;10.68;;;33.60;96.80;;;;;;4455203;32;20200;-60
2021/07/12 09:39:46;;;;;;;11.20;9.80;;;33.90;98.20;;;;;;4454173;32;20178;-61
2021/07/12 09:42:27;;;;;;;12.02;10.70;;;33.90;97.00;;;;;;4455611;32;20150;-59
2021/07/12 09:44:57;;;;;;;13.00;10.48;;;34.20;95.70;;;;;;4455685;32;20299;-60
2021/07/12 09:47:26;;;;;;;12.05;9.50;;;34.50;94.70;;;;;;4454662;32;20424;-61
2021/07/12 09:50:11;;;;;;;11.15;9.73;;;33.80;91.60;;;;;;4455709;32;20417;-61
2021/07/12 09:52:48;;;;;;;10.48;9.35;;;34.10;93.40;;;;;;4455634;32;20205;-60
2021/07/12 09:55:26;;;;;;;11.45;8.95;;;34.30;93.60;;;;;;4440245;32;20169;-61
2021/07/12 09:58:07;;;;;;;10.18;8.95;;;34.70;92.20;;;;;;4440149;32;20138;-60
2021/07/12 10:00:38;;;;;;;12.00;10.02;;;34.90;90.60;;;;;;4440415;32;20418;-61
2021/07/12 10:03:06;;;;;;;11.68;9.50;;;35.20;89.40;;;;;;4439503;32;20194;-61
2021/07/12 10:05:33;;;;;;;10.13;9.13;;;35.50;89.70;;;;;;4439725;32;20213;-60
2021/07/12 10:08:02;;;;;;;10.55;9.48;;;35.60;86.90;;;;;;4440141;32;20139;-61
2021/07/12 10:10:29;;;;;;;9.57;8.68;;;35.90;85.40;;;;;;4439952;32;20191;-60
2021/07/12 10:12:56;;;;;;;11.90;8.25;;;36.00;83.50;;;;;;4438853;32;20154;-61
2021/07/12 10:15:23;;;;;;;9.13;8.23;;;36.20;78.60;;;;;;4439892;32;20161;-61
2021/07/12 10:17:50;;;;;;;8.90;7.90;;;36.10;78.30;;;;;;4439826;32;20165;-60
2021/07/12 10:20:17;;;;;;;8.73;7.82;;;36.30;75.60;;;;;;4439309;32;20131;-61
2021/07/12 10:22:44;;;;;;;11.12;8.05;;;36.60;75.60;;;;;;4439831;32;20146;-60
2021/07/12 10:25:14;;;;;;;9.15;8.10;;;36.70;73.40;;;;;;4441489;32;20173;-61
2021/07/12 10:27:50;;;;;;;9.48;8.20;;;36.60;72.10;;;;;;4442763;32;20143;-61
2021/07/12 10:30:24;;;;;;;9.02;8.13;;;36.50;73.20;;;;;;4442963;32;20135;-61
2021/07/12 10:32:57;;;;;;;12.13;7.57;;;36.70;73.00;;;;;;4442800;32;20146;-61
2021/07/12 10:35:34;;;;;;;8.98;7.78;;;37.10;69.60;;;;;;4442398;32;20142;-60
2021/07/12 10:38:01;;;;;;;8.10;7.15;;;37.00;67.20;;;;;;4442387;32;20161;-61
2021/07/12 10:40:53;;;;;;;8.45;6.97;;;37.40;65.40;;;;;;4442946;32;20143;-61
2021/07/12 10:43:42;;;;;;;9.52;6.60;;;37.30;63.50;;;;;;4442854;32;20196;-61
2021/07/12 10:46:32;;;;;;;8.48;7.07;;;37.50;64.30;;;;;;4441549;32;20172;-61
2021/07/12 10:49:31;;;;;;;7.95;7.10;;;37.70;61.90;;;;;;4441884;32;20497;-61
2021/07/12 10:51:58;;;;;;;10.25;7.50;;;38.10;60.10;;;;;;4442509;32;20457;-61
2021/07/12 10:54:58;;;;;;;8.15;6.60;;;38.10;59.80;;;;;;4442749;32;20160;-61
2021/07/12 10:57:25;;;;;;;9.18;6.70;;;38.10;60.50;;;;;;4441166;32;20410;-60
2021/07/12 11:00:09;;;;;;;11.00;6.60;;;38.10;59.70;;;;;;4442606;32;20188;-60
2021/07/12 11:02:38;;;;;;;7.35;6.65;;;38.20;57.10;;;;;;4442482;32;20147;-60
2021/07/12 11:05:07;;;;;;;9.00;6.70;;;38.40;54.70;;;;;;4442762;32;20473;-60
2021/07/12 11:07:42;;;;;;;7.70;6.28;;;37.80;56.40;;;;;;4441874;32;20169;-61
2021/07/12 11:10:38;;;;;;;7.60;6.60;;;37.90;55.00;;;;;;4442514;32;20142;-60
2021/07/12 11:13:09;;;;;;;7.32;6.62;;;37.90;55.50;;;;;;4442338;32;20166;-60
2021/07/12 11:15:39;;;;;;;8.18;6.68;;;38.00;54.70;;;;;;4442864;32;20463;-60
2021/07/12 11:18:27;;;;;;;10.00;7.00;;;38.20;55.20;;;;;;4441194;32;20212;-61
2021/07/12 11:20:58;;;;;;;9.23;6.30;;;38.60;55.40;;;;;;4441965;32;20143;-60
2021/07/12 11:23:42;;;;;;;6.43;5.60;;;38.70;52.30;;;;;;4442909;32;20531;-61
2021/07/12 11:26:32;;;;;;;6.62;5.93;;;39.20;51.30;;;;;;4441612;32;20476;-60
2021/07/12 11:29:14;;;;;;;7.68;5.80;;;39.80;51.10;;;;;;4436919;32;20519;-60
2021/07/12 11:31:46;;;;;;;6.37;5.78;;;40.20;51.00;;;;;;4442165;32;20154;-60
2021/07/12 11:34:32;;;;;;;6.85;5.57;;;39.70;47.30;;;;;;4442199;32;20155;-60
2021/07/12 11:37:10;;;;;;;9.07;5.78;;;39.90;47.90;;;;;;4441775;32;20154;-61
2021/07/12 11:39:44;;;;;;;6.22;5.50;;;40.20;49.60;;;;;;4442581;32;20508;-61
2021/07/12 11:42:33;;;;;;;7.15;5.57;;;40.60;49.80;;;;;;4441982;32;20433;-61
2021/07/12 11:45:03;;;;;;;7.05;5.32;;;40.60;44.70;;;;;;4442050;32;20469;-61
2021/07/12 11:47:41;;;;;;;7.18;5.50;;;40.10;45.30;;;;;;4441836;32;20147;-61
2021/07/12 11:50:21;;;;;;;7.62;5.57;;;39.50;46.40;;;;;;4442003;32;20138;-61
2021/07/12 11:52:53;;;;;;;6.30;5.32;;;39.60;47.60;;;;;;4442352;32;20187;-61
2021/07/12 11:55:23;;;;;;;6.32;5.40;;;40.20;46.90;;;;;;4442154;32;20185;-62
2021/07/12 11:57:56;;;;;;;6.62;5.40;;;40.30;44.70;;;;;;4440508;32;20142;-61
2021/07/12 12:00:38;;;;;;;6.78;5.57;;;40.20;45.30;;;;;;4442403;32;20146;-61
2021/07/12 12:03:11;;;;;;;6.93;5.68;;;40.30;45.60;;;;;;4441219;32;20158;-61
2021/07/12 12:05:41;;;;;;;6.37;5.70;;;40.10;45.50;;;;;;4440157;32;20147;-60
2021/07/12 12:08:13;;;;;;;6.87;5.40;;;40.50;45.00;;;;;;4441649;32;20188;-61
2021/07/12 12:10:41;;;;;;;6.78;5.70;;;40.30;44.40;;;;;;4442021;32;20165;-61
2021/07/12 12:13:21;;;;;;;7.25;5.62;;;40.50;45.30;;;;;;4441596;32;20150;-60
2021/07/12 12:15:51;;;;;;;7.68;5.65;;;40.50;44.80;;;;;;4441557;32;20147;-61
2021/07/12 12:18:26;;;;;;;6.85;5.90;;;40.40;44.60;;;;;;4441521;32;20196;-61
2021/07/12 12:20:57;;;;;;;7.85;5.75;;;39.90;44.30;;;;;;4441675;32;20406;-62
2021/07/12 12:23:27;;;;;;;7.18;5.68;;;40.30;43.70;;;;;;4441461;32;20161;-61
2021/07/12 12:26:17;;;;;;;8.90;5.97;;;40.50;43.20;;;;;;4441711;32;20151;-62
2021/07/12 12:28:54;;;;;;;6.60;6.00;;;40.80;42.30;;;;;;4441918;32;20198;-62
2021/07/12 12:31:27;;;;;;;7.50;6.25;;;40.60;42.40;;;;;;4441792;32;20202;-62
2021/07/12 12:34:11;;;;;;;6.90;6.20;;;40.60;43.70;;;;;;4440582;32;20194;-62
2021/07/12 12:36:41;;;;;;;7.05;5.65;;;40.50;44.00;;;;;;4441702;32;20599;-62
2021/07/12 12:39:12;;;;;;;7.15;6.43;;;39.90;44.70;;;;;;4441405;32;20412;-62
2021/07/12 12:41:45;;;;;;;7.15;6.45;;;39.50;45.90;;;;;;4441139;32;20221;-62
2021/07/12 12:44:15;;;;;;;7.70;6.82;;;39.40;46.50;;;;;;4441491;32;20504;-61
2021/07/12 12:46:54;;;;;;;8.10;6.50;;;38.80;45.50;;;;;;4440484;32;20192;-61
2021/07/12 12:49:31;;;;;;;8.50;6.72;;;38.30;47.20;;;;;;4440967;32;20146;-62
2021/07/12 12:52:03;;;;;;;9.75;6.97;;;38.20;48.30;;;;;;4440068;32;20201;-61
2021/07/12 12:54:35;;;;;;;12.45;7.07;;;37.70;48.50;;;;;;4438704;32;20365;-62